首页
METAR-TAF:

METAR-TAF

机场 :

布良斯克, 俄罗斯

纬度: 53-15N, 经度: 034-19E, 海拔: 217米

当前天气观测

该预报发布于5小时和59分钟前的15:00 UTC
风速8节,风向西转西北
温度 9°C
湿度 46%
气压 1019 hPa
能见度10公里或以上
少量云层高于3300英尺

METAR: UUBP 231500Z 30004MPS 9999 FEW033 09/M02 Q1019 R34/CLRD70 NOSIG RMK QFE747/0996

时间: 23:59 (20:59 UTC)

预报

该预报发布于7小时和9分钟前的13:50 UTC
预报有效从23日的 15点(UTC)到 23日的 24点(UTC)
风速12节,风向西转西北
能见度10公里或以上
多云层高于2500英尺

TAF: UUBP 231350Z 2315/2324 29006MPS 9999 BKN025

超过4000个机场的气象观测和天气预报(METAR&TAF报告)。

可查询的气象台以黄色和红色小点在地图上表示。

将鼠标移到小点上方,可查看气象台名称。

然后点击查看天气观测和预报。

如需切换地图:点击带黑十字的绿色按钮放大地图;点击带横线的绿色按钮缩小地图;或者点击绿色箭头查看邻近地区的地图。


METAR-TAF: